Faust, Canada
Current Conditions -  °F | °C
As of 1:28 AM on Monday 22 Dec 2014 (Local Time) from CYZH Reporting Station
Overcast Overcast  
Wind Chill: 17°   Ceiling: 800
Heat Index: 23°   Visibility: 9mi
Dew Point: 23°   Wind: 5mph
Humidity: 100%   Direction: 320°NW
Pressure: 29.62"   Gusts: NA
Location:  55.32°N, 115.72°W
Report Text: CYZH 220828Z AUTO 32004KT 290V360 9SM BKN008 BKN027 OVC048 M05/M05 A2962 RMK SLP066
Loading
Personal Weather Stations






























Interactive Weather Map New forecast layout! Learn more

10-Day Weather Forecast

Advertisements
Track Severe Weather on mobile